Emmagracht — PDYX — position and weather

sailwx.info

Track history (hours):
 
Tides and Currents Weather Stations Pressure Air Temp Water Temp Dewpoint Dewpoint Depression Visibility Wind Speed Wind Dir Waves Ship Positions

Emmagracht

Last reported at 2016-Dec-03 11:34 UTC. Time now 2016-Dec-03 11:43 UTC.
Position N 51°05' E 001°42'.

Length 136 m; beam 19 m; draft 9 m.

Type: Cargo ship. MMSI: 246308000.

Date/timePositionNaut miles runAvg speedWind from/ knotsBaromVisibWave heightAir tempDewpointWater temp
2016-Dec-03 11:34N 51°05' E 001°42'1212.3
2016-Dec-03 10:33N 50°56' E 001°29'5711.0
2016-Dec-03 05:23N 50°22' E 000°16'1011.7
2016-Dec-03 04:33N 50°20' E 000°02'1211.6
2016-Dec-03 03:33N 50°17' W 000°16'1211.3
2016-Dec-03 02:27N 50°15' W 000°35'1211.8
2016-Dec-03 01:27N 50°12' W 000°53'1213.0
2016-Dec-03 00:33N 50°09' W 001°10'1414.4
2016-Dec-02 23:34N 50°04' W 001°32'1615.5
2016-Dec-02 22:34N 49°60' W 001°55'1716.5
2016-Dec-02 21:33N 49°56' W 002°20'3315.2
2016-Dec-02 19:22N 49°49' W 003°10'1214.3
2016-Dec-02 18:32N 49°48' W 003°28'1414.1
2016-Dec-02 17:31N 49°46' W 003°51'2713.7
2016-Dec-02 15:33N 49°44' W 004°32'1813.0
2016-Dec-02 14:13N 49°42' W 004°59'812.4
2016-Dec-02 13:32N 49°42' W 005°12'  
2016-Nov-23 12:33N 45°29' W 073°31'3 2.5
2016-Nov-23 11:29N 45°27' W 073°30'  
Track history (hours):
 
Tides and Currents Weather Stations Pressure Air Temp Water Temp Dewpoint Dewpoint Depression Visibility Wind Speed Wind Dir Waves Ship Positions

Emmagracht

Last reported at 2016-Dec-03 11:34 UTC. Time now 2016-Dec-03 11:43 UTC.
Position N 51°05' E 001°42'.

Length 136 m; beam 19 m; draft 9 m.

Type: Cargo ship. MMSI: 246308000.

Date/timePositionNaut miles runAvg speedWind from/ knotsBaromVisibWave heightAir tempDewpointWater temp
2016-Dec-03 11:34N 51°05' E 001°42'1212.3
2016-Dec-03 10:33N 50°56' E 001°29'5711.0
2016-Dec-03 05:23N 50°22' E 000°16'1011.7
2016-Dec-03 04:33N 50°20' E 000°02'1211.6
2016-Dec-03 03:33N 50°17' W 000°16'1211.3
2016-Dec-03 02:27N 50°15' W 000°35'1211.8
2016-Dec-03 01:27N 50°12' W 000°53'1213.0
2016-Dec-03 00:33N 50°09' W 001°10'1414.4
2016-Dec-02 23:34N 50°04' W 001°32'1615.5
2016-Dec-02 22:34N 49°60' W 001°55'1716.5
2016-Dec-02 21:33N 49°56' W 002°20'3315.2
2016-Dec-02 19:22N 49°49' W 003°10'1214.3
2016-Dec-02 18:32N 49°48' W 003°28'1414.1
2016-Dec-02 17:31N 49°46' W 003°51'2713.7
2016-Dec-02 15:33N 49°44' W 004°32'1813.0
2016-Dec-02 14:13N 49°42' W 004°59'812.4
2016-Dec-02 13:32N 49°42' W 005°12'  
2016-Nov-23 12:33N 45°29' W 073°31'3 2.5
2016-Nov-23 11:29N 45°27' W 073°30'  

Dump ship's entire track history